createdAt,value
2019-01-19T00:00:42.444Z,0.00
2019-01-19T00:01:42.414Z,0.00
2019-01-19T00:02:42.402Z,0.00
2019-01-19T00:03:42.407Z,0.00
2019-01-19T00:04:42.385Z,0.00
2019-01-19T00:05:42.371Z,0.00
2019-01-19T00:06:42.378Z,0.00
2019-01-19T00:07:42.352Z,0.00
2019-01-19T00:08:42.336Z,0.00
2019-01-19T00:09:42.327Z,0.00
2019-01-19T00:10:42.317Z,0.00
2019-01-19T00:11:42.309Z,0.00
2019-01-19T00:12:42.298Z,0.00
2019-01-19T00:13:42.287Z,0.00
2019-01-19T00:14:42.277Z,0.00
2019-01-19T00:15:42.270Z,0.00
2019-01-19T00:16:42.255Z,0.00
2019-01-19T00:17:42.246Z,0.00
2019-01-19T00:18:42.233Z,0.00
2019-01-19T00:19:42.228Z,0.00
2019-01-19T00:20:42.213Z,0.00
2019-01-19T00:21:42.205Z,0.00
2019-01-19T00:22:42.192Z,0.00
2019-01-19T00:23:42.186Z,0.00
2019-01-19T00:24:42.171Z,0.00
2019-01-19T00:25:42.164Z,0.00
2019-01-19T00:26:42.150Z,0.00
2019-01-19T00:27:42.139Z,0.00
2019-01-19T00:28:42.130Z,0.00
2019-01-19T00:29:42.121Z,0.00
2019-01-19T00:30:42.111Z,0.00
2019-01-19T00:31:42.100Z,0.00
2019-01-19T00:32:42.088Z,0.00
2019-01-19T00:33:42.075Z,0.00
2019-01-19T00:34:42.066Z,0.00
2019-01-19T00:35:42.056Z,0.00
2019-01-19T00:36:42.044Z,0.00
2019-01-19T00:37:42.032Z,0.00
2019-01-19T00:38:42.023Z,0.00
2019-01-19T00:39:42.015Z,0.00
2019-01-19T00:40:42.005Z,0.00
2019-01-19T00:41:41.992Z,0.00
2019-01-19T00:42:41.982Z,0.00
2019-01-19T00:43:41.975Z,0.00
2019-01-19T00:44:41.965Z,0.00
2019-01-19T00:45:41.950Z,0.00
2019-01-19T00:46:41.939Z,0.00
2019-01-19T00:47:41.931Z,0.00
2019-01-19T00:48:41.921Z,0.00
2019-01-19T00:49:41.911Z,0.00
2019-01-19T00:50:41.899Z,0.00
2019-01-19T00:51:41.886Z,0.00
2019-01-19T00:52:41.878Z,0.00
2019-01-19T00:53:41.863Z,0.00
2019-01-19T00:54:41.859Z,0.00
2019-01-19T00:55:41.854Z,0.00
2019-01-19T00:56:41.835Z,0.00
2019-01-19T00:57:41.825Z,0.00
2019-01-19T00:58:41.814Z,0.00
2019-01-19T00:59:41.803Z,0.00
2019-01-19T01:00:41.794Z,0.00
2019-01-19T01:01:41.784Z,0.00
2019-01-19T01:02:41.779Z,0.00
2019-01-19T01:03:41.763Z,0.00
2019-01-19T01:04:41.752Z,0.00
2019-01-19T01:05:41.742Z,0.00
2019-01-19T01:06:41.729Z,0.00
2019-01-19T01:07:41.720Z,0.00
2019-01-19T01:08:41.704Z,0.00
2019-01-19T01:09:41.695Z,0.00
2019-01-19T01:10:41.688Z,0.00
2019-01-19T01:11:41.679Z,0.00
2019-01-19T01:12:41.666Z,0.00
2019-01-19T01:13:41.659Z,0.00
2019-01-19T01:14:41.646Z,0.00
2019-01-19T01:15:41.635Z,0.00
2019-01-19T01:16:41.626Z,0.00
2019-01-19T01:17:41.612Z,0.00
2019-01-19T01:18:41.600Z,0.00
2019-01-19T01:19:41.593Z,0.00
2019-01-19T01:20:41.584Z,0.00
2019-01-19T01:21:41.571Z,0.00
2019-01-19T01:22:41.565Z,0.00
2019-01-19T01:23:41.553Z,0.00
2019-01-19T01:24:41.541Z,0.00
2019-01-19T01:25:41.534Z,0.00
2019-01-19T01:26:41.515Z,0.00
2019-01-19T01:27:41.506Z,0.00
2019-01-19T01:28:41.493Z,0.00
2019-01-19T01:29:41.488Z,0.00
2019-01-19T01:30:41.476Z,0.00
2019-01-19T01:31:41.470Z,0.00
2019-01-19T01:32:41.456Z,0.00
2019-01-19T01:33:41.445Z,0.00
2019-01-19T01:34:41.435Z,0.00
2019-01-19T01:35:41.425Z,0.00
2019-01-19T01:36:41.417Z,0.00
2019-01-19T01:37:41.407Z,0.00
2019-01-19T01:38:41.390Z,0.00
2019-01-19T01:39:41.382Z,0.00
2019-01-19T01:40:41.373Z,0.00
2019-01-19T01:41:41.370Z,0.00
2019-01-19T01:42:41.354Z,0.00
2019-01-19T01:43:41.342Z,0.00
2019-01-19T01:44:41.331Z,0.00
2019-01-19T01:45:41.361Z,0.00
2019-01-19T01:46:41.310Z,0.00
2019-01-19T01:47:41.297Z,0.00
2019-01-19T01:48:41.291Z,0.00
2019-01-19T01:49:41.280Z,0.00
2019-01-19T01:50:41.268Z,0.00
2019-01-19T01:51:41.261Z,0.00
2019-01-19T01:52:41.246Z,0.00
2019-01-19T01:53:41.239Z,0.00
2019-01-19T01:54:41.229Z,0.00
2019-01-19T01:55:41.217Z,0.00
2019-01-19T01:56:41.207Z,0.00
2019-01-19T01:57:41.195Z,0.00
2019-01-19T01:58:41.183Z,0.00
2019-01-19T01:59:41.172Z,0.00
2019-01-19T02:00:41.164Z,0.00
2019-01-19T02:01:41.155Z,0.00
2019-01-19T02:02:41.142Z,0.00
2019-01-19T02:03:41.130Z,0.00
2019-01-19T02:04:41.125Z,0.00
2019-01-19T02:05:41.111Z,0.00
2019-01-19T02:06:41.103Z,0.00
2019-01-19T02:07:41.091Z,0.00
2019-01-19T02:08:41.078Z,0.00
2019-01-19T02:09:41.070Z,0.00
2019-01-19T02:10:41.057Z,0.00
2019-01-19T02:11:41.051Z,0.00
2019-01-19T02:12:41.046Z,0.00
2019-01-19T02:13:41.024Z,0.00
2019-01-19T02:14:41.011Z,0.00
2019-01-19T02:15:41.009Z,0.00
2019-01-19T02:16:40.997Z,0.00
2019-01-19T02:17:40.984Z,0.00
2019-01-19T02:18:40.980Z,0.00
2019-01-19T02:19:40.963Z,0.00
2019-01-19T02:20:40.953Z,0.00
2019-01-19T02:21:40.942Z,0.00
2019-01-19T02:22:40.931Z,0.00
2019-01-19T02:23:40.918Z,0.00
2019-01-19T02:24:40.909Z,0.00
2019-01-19T02:25:40.894Z,0.00
2019-01-19T02:26:40.886Z,0.00
2019-01-19T02:27:40.879Z,0.00
2019-01-19T02:28:40.863Z,0.00
2019-01-19T02:29:40.855Z,0.00
2019-01-19T02:30:40.850Z,0.00
2019-01-19T02:31:40.831Z,0.00
2019-01-19T02:32:40.822Z,0.00
2019-01-19T02:33:40.816Z,0.00
2019-01-19T02:34:40.809Z,0.00
2019-01-19T02:35:48.148Z,0.00
2019-01-19T02:36:41.782Z,0.00
2019-01-19T02:37:40.771Z,0.00
2019-01-19T02:38:40.765Z,0.00
2019-01-19T02:39:40.752Z,0.00
2019-01-19T02:40:40.745Z,0.00
2019-01-19T02:41:40.739Z,0.00
2019-01-19T02:42:40.721Z,0.00
2019-01-19T02:43:40.708Z,0.00
2019-01-19T02:44:40.699Z,0.00
2019-01-19T02:45:40.691Z,0.00
2019-01-19T02:46:40.685Z,0.00
2019-01-19T02:47:40.671Z,0.00
2019-01-19T02:48:40.660Z,0.00
2019-01-19T02:49:40.645Z,0.00
2019-01-19T02:50:40.637Z,0.00
2019-01-19T02:51:40.629Z,0.00
2019-01-19T02:52:40.620Z,0.00
2019-01-19T02:53:40.612Z,0.00
2019-01-19T02:54:40.597Z,0.00
2019-01-19T02:55:40.589Z,0.00
2019-01-19T02:56:40.575Z,0.00
2019-01-19T02:57:40.563Z,0.00
2019-01-19T02:58:40.560Z,0.00
2019-01-19T02:59:40.541Z,0.00
2019-01-19T03:00:40.531Z,0.00
2019-01-19T03:01:40.523Z,0.00
2019-01-19T03:02:40.511Z,0.00
2019-01-19T03:03:40.501Z,0.00
2019-01-19T03:04:40.492Z,0.00
2019-01-19T03:05:40.479Z,0.00
2019-01-19T03:06:40.471Z,0.00
2019-01-19T03:07:40.456Z,0.00
2019-01-19T03:08:40.449Z,0.00
2019-01-19T03:09:40.441Z,0.00
2019-01-19T03:10:40.437Z,0.00
2019-01-19T03:11:40.416Z,0.00
2019-01-19T03:12:40.411Z,0.00
2019-01-19T03:13:40.396Z,0.00
2019-01-19T03:14:40.387Z,0.00
2019-01-19T03:15:40.375Z,0.00
2019-01-19T03:16:40.367Z,0.00
2019-01-19T03:17:40.355Z,0.00
2019-01-19T03:18:40.345Z,0.00
2019-01-19T03:19:40.339Z,0.00
2019-01-19T03:20:40.322Z,0.00
2019-01-19T03:21:40.315Z,0.00
2019-01-19T03:22:40.306Z,0.00
2019-01-19T03:23:40.290Z,0.00
2019-01-19T03:24:40.276Z,0.00
2019-01-19T03:25:40.270Z,0.00
2019-01-19T03:26:40.257Z,0.00
2019-01-19T03:27:40.253Z,0.00
2019-01-19T03:28:40.239Z,0.00
2019-01-19T03:29:40.233Z,0.00
2019-01-19T03:30:40.222Z,0.00
2019-01-19T03:31:40.218Z,0.00
2019-01-19T03:32:40.197Z,0.00
2019-01-19T03:33:40.187Z,0.00
2019-01-19T03:34:40.169Z,0.00
2019-01-19T03:35:40.166Z,0.00
2019-01-19T03:36:40.157Z,0.00
2019-01-19T03:37:40.145Z,0.00
2019-01-19T03:38:40.134Z,0.00
2019-01-19T03:39:40.126Z,0.00
2019-01-19T03:40:40.111Z,0.00
2019-01-19T03:41:40.105Z,0.00
2019-01-19T03:42:40.091Z,0.00
2019-01-19T03:43:40.084Z,0.00
2019-01-19T03:44:40.070Z,0.00
2019-01-19T03:45:40.060Z,0.00
2019-01-19T03:46:40.049Z,0.00
2019-01-19T03:47:40.042Z,0.00
2019-01-19T03:48:40.034Z,0.00
2019-01-19T03:49:40.018Z,0.00
2019-01-19T03:50:40.008Z,0.00
2019-01-19T03:51:40.000Z,0.00
2019-01-19T03:52:39.988Z,0.00
2019-01-19T03:53:39.982Z,0.00
2019-01-19T03:54:39.960Z,0.00
2019-01-19T03:55:39.958Z,0.00
2019-01-19T03:56:39.950Z,0.00
2019-01-19T03:57:39.937Z,0.00
2019-01-19T03:58:39.925Z,0.00
2019-01-19T03:59:39.914Z,0.00
2019-01-19T04:00:39.904Z,0.00
2019-01-19T04:01:39.895Z,0.00
2019-01-19T04:02:39.884Z,0.00
2019-01-19T04:03:39.875Z,0.00
2019-01-19T04:04:39.935Z,0.00
2019-01-19T04:05:39.849Z,0.00
2019-01-19T04:06:39.840Z,0.00
2019-01-19T04:07:39.834Z,0.00
2019-01-19T04:08:39.819Z,0.00
2019-01-19T04:09:39.808Z,0.00
2019-01-19T04:10:39.798Z,0.00
2019-01-19T04:11:39.782Z,0.00
2019-01-19T04:12:39.776Z,0.00
2019-01-19T04:13:39.768Z,0.00
2019-01-19T04:14:39.757Z,0.00
2019-01-19T04:15:39.744Z,0.00
2019-01-19T04:16:39.735Z,0.00
2019-01-19T04:17:39.724Z,0.00
2019-01-19T04:18:39.719Z,0.00
2019-01-19T04:19:39.705Z,0.00
2019-01-19T04:20:39.695Z,0.00
2019-01-19T04:21:39.682Z,0.00
2019-01-19T04:22:39.672Z,0.00
2019-01-19T04:23:39.661Z,0.00
2019-01-19T04:24:39.653Z,0.00
2019-01-19T04:25:39.646Z,0.00
2019-01-19T04:26:39.634Z,0.00
2019-01-19T04:27:39.616Z,0.00
2019-01-19T04:28:39.610Z,0.00
2019-01-19T04:29:39.598Z,0.00
2019-01-19T04:30:39.588Z,0.00
2019-01-19T04:31:39.579Z,0.00
2019-01-19T04:32:39.569Z,0.00
2019-01-19T04:33:39.558Z,0.00
2019-01-19T04:34:39.547Z,0.00
2019-01-19T04:35:39.533Z,0.00
2019-01-19T04:36:39.525Z,0.00
2019-01-19T04:37:39.516Z,0.00
2019-01-19T04:38:39.505Z,0.00
2019-01-19T04:39:39.495Z,0.00
2019-01-19T04:40:39.487Z,0.00
2019-01-19T04:41:39.477Z,0.00
2019-01-19T04:42:39.465Z,0.00
2019-01-19T04:43:39.455Z,0.00
2019-01-19T04:44:39.449Z,0.00
2019-01-19T04:45:39.431Z,0.00
2019-01-19T04:46:39.418Z,0.00
2019-01-19T04:47:39.410Z,0.00
2019-01-19T04:48:39.396Z,0.00
2019-01-19T04:49:39.388Z,0.00
2019-01-19T04:50:39.409Z,0.00
2019-01-19T04:51:39.370Z,0.00
2019-01-19T04:52:39.360Z,0.00
2019-01-19T04:53:39.349Z,0.00
2019-01-19T04:54:39.338Z,0.00
2019-01-19T04:55:39.328Z,0.00
2019-01-19T04:56:39.317Z,0.00
2019-01-19T04:57:39.305Z,0.00
2019-01-19T04:58:39.292Z,0.00
2019-01-19T04:59:39.291Z,0.00
2019-01-19T05:00:39.271Z,0.00
2019-01-19T05:01:39.260Z,0.00
2019-01-19T05:02:39.251Z,0.00
2019-01-19T05:03:39.245Z,0.00
2019-01-19T05:04:39.236Z,0.00
2019-01-19T05:05:39.224Z,0.00
2019-01-19T05:06:39.213Z,0.00
2019-01-19T05:07:39.204Z,0.00
2019-01-19T05:08:39.192Z,0.00
2019-01-19T05:09:39.183Z,0.00
2019-01-19T05:10:39.173Z,0.00
2019-01-19T05:11:39.163Z,0.00
2019-01-19T05:12:39.149Z,0.00
2019-01-19T05:13:39.141Z,0.00
2019-01-19T05:14:39.130Z,0.00
2019-01-19T05:15:39.122Z,0.00
2019-01-19T05:16:39.109Z,0.00
2019-01-19T05:17:39.109Z,0.00
2019-01-19T05:18:39.083Z,0.00
2019-01-19T05:19:39.075Z,0.00
2019-01-19T05:20:39.061Z,0.00
2019-01-19T05:21:39.056Z,0.00
2019-01-19T05:22:39.043Z,0.00
2019-01-19T05:23:39.032Z,0.00
2019-01-19T05:24:39.029Z,0.00
2019-01-19T05:25:39.017Z,0.00
2019-01-19T05:26:39.003Z,0.00
2019-01-19T05:27:38.994Z,0.00
2019-01-19T05:28:38.988Z,0.00
2019-01-19T05:29:38.991Z,0.00
2019-01-19T05:30:38.965Z,0.00
2019-01-19T05:31:38.953Z,0.00
2019-01-19T05:32:38.938Z,0.00
2019-01-19T05:33:38.929Z,0.00
2019-01-19T05:34:38.917Z,0.00
2019-01-19T05:35:38.908Z,0.00
2019-01-19T05:36:38.898Z,0.00
2019-01-19T05:37:38.885Z,0.00
2019-01-19T05:38:38.883Z,0.00
2019-01-19T05:39:38.864Z,0.00
2019-01-19T05:40:38.857Z,0.00
2019-01-19T05:41:38.845Z,0.00
2019-01-19T05:42:38.836Z,0.00
2019-01-19T05:43:38.826Z,0.00
2019-01-19T05:44:38.813Z,0.00
2019-01-19T05:45:38.805Z,0.00
2019-01-19T05:46:38.796Z,0.00
2019-01-19T05:47:38.782Z,0.00
2019-01-19T05:48:38.776Z,0.00
2019-01-19T05:49:38.770Z,0.00
2019-01-19T05:50:38.751Z,0.00
2019-01-19T05:51:38.744Z,0.00
2019-01-19T05:52:38.728Z,0.00
2019-01-19T05:53:38.719Z,0.00
2019-01-19T05:54:38.710Z,0.00
2019-01-19T05:55:38.698Z,0.00
2019-01-19T05:56:38.699Z,0.00
2019-01-19T05:57:38.683Z,0.00
2019-01-19T05:58:38.674Z,0.00
2019-01-19T05:59:38.660Z,0.00
2019-01-19T06:00:38.650Z,0.00
2019-01-19T06:01:38.636Z,0.00
2019-01-19T06:02:38.624Z,0.00
2019-01-19T06:03:38.614Z,0.00
2019-01-19T06:04:38.608Z,0.00
2019-01-19T06:05:38.606Z,0.00
2019-01-19T06:06:46.342Z,0.00
2019-01-19T06:07:39.571Z,0.00
2019-01-19T06:08:38.562Z,0.00
2019-01-19T06:09:38.552Z,0.00
2019-01-19T06:10:38.546Z,0.00
2019-01-19T06:11:38.536Z,0.00
2019-01-19T06:12:38.525Z,0.00
2019-01-19T06:13:38.510Z,0.00
2019-01-19T06:14:38.499Z,0.00
2019-01-19T06:15:38.490Z,0.00
2019-01-19T06:16:38.480Z,0.00
2019-01-19T06:17:38.470Z,0.00
2019-01-19T06:18:38.459Z,0.00
2019-01-19T06:19:38.450Z,0.00
2019-01-19T06:20:38.436Z,0.00
2019-01-19T06:21:38.426Z,0.00
2019-01-19T06:22:38.419Z,0.00
2019-01-19T06:23:38.406Z,0.00
2019-01-19T06:24:38.399Z,4.00
2019-01-19T06:25:38.387Z,4.00
2019-01-19T06:26:38.373Z,4.00
2019-01-19T06:27:38.367Z,4.00
2019-01-19T06:28:38.352Z,0.00
2019-01-19T06:29:38.344Z,0.00
2019-01-19T06:30:38.334Z,0.00
2019-01-19T06:31:38.370Z,4.00
2019-01-19T06:32:38.314Z,4.00
2019-01-19T06:33:38.302Z,4.00
2019-01-19T06:34:38.289Z,4.00
2019-01-19T06:35:38.280Z,4.00
2019-01-19T06:36:38.271Z,4.00
2019-01-19T06:37:38.258Z,4.00
2019-01-19T06:38:38.248Z,4.00
2019-01-19T06:39:38.234Z,4.00
2019-01-19T06:40:38.234Z,8.00
2019-01-19T06:41:38.225Z,12.00
2019-01-19T06:42:38.210Z,12.00
2019-01-19T06:43:38.196Z,12.00
2019-01-19T06:44:38.184Z,16.00
2019-01-19T06:45:38.177Z,20.00
2019-01-19T06:46:38.164Z,24.00
2019-01-19T06:47:38.156Z,28.00
2019-01-19T06:48:38.144Z,36.00
2019-01-19T06:49:38.135Z,44.00
2019-01-19T06:50:38.121Z,48.00
2019-01-19T06:51:38.114Z,52.00
2019-01-19T06:52:38.099Z,60.00
2019-01-19T06:53:38.097Z,64.00
2019-01-19T06:54:38.078Z,72.00
2019-01-19T06:55:38.073Z,76.00
2019-01-19T06:56:38.060Z,84.00
2019-01-19T06:57:38.049Z,88.00
2019-01-19T06:58:38.040Z,100.00
2019-01-19T06:59:38.029Z,108.00
2019-01-19T07:00:38.019Z,120.00
2019-01-19T07:01:38.007Z,128.00
2019-01-19T07:02:37.996Z,136.00
2019-01-19T07:03:37.998Z,144.00
2019-01-19T07:04:37.978Z,156.00
2019-01-19T07:05:37.966Z,168.00
2019-01-19T07:06:37.954Z,184.00
2019-01-19T07:07:37.945Z,196.00
2019-01-19T07:08:37.932Z,212.00
2019-01-19T07:09:37.922Z,236.00
2019-01-19T07:10:37.914Z,248.00
2019-01-19T07:11:37.903Z,260.00
2019-01-19T07:12:37.893Z,268.00
2019-01-19T07:13:37.880Z,276.00
2019-01-19T07:14:37.871Z,280.00
2019-01-19T07:15:37.860Z,292.00
2019-01-19T07:16:37.849Z,316.00
2019-01-19T07:17:37.841Z,344.00
2019-01-19T07:18:37.826Z,392.00
2019-01-19T07:19:37.814Z,452.00
2019-01-19T07:20:37.809Z,516.00
2019-01-19T07:21:37.797Z,576.00
2019-01-19T07:22:37.791Z,620.00
2019-01-19T07:23:37.775Z,664.00
2019-01-19T07:24:37.766Z,696.00
2019-01-19T07:25:37.759Z,736.00
2019-01-19T07:26:37.745Z,792.00
2019-01-19T07:27:37.736Z,852.00
2019-01-19T07:28:37.721Z,928.00
2019-01-19T07:29:37.717Z,1020.00
2019-01-19T07:30:37.704Z,1116.00
2019-01-19T07:31:37.693Z,1200.00
2019-01-19T07:32:37.682Z,1276.00
2019-01-19T07:33:37.671Z,1344.00
2019-01-19T07:34:37.668Z,1396.00
2019-01-19T07:35:37.652Z,1436.00
2019-01-19T07:36:37.642Z,1480.00
2019-01-19T07:37:37.630Z,1572.00
2019-01-19T07:38:37.619Z,1732.00
2019-01-19T07:39:37.612Z,1840.00
2019-01-19T07:40:37.598Z,1912.00
2019-01-19T07:41:37.583Z,2016.00
2019-01-19T07:42:37.573Z,2128.00
2019-01-19T07:43:37.565Z,2196.00
2019-01-19T07:44:37.553Z,2236.00
2019-01-19T07:45:37.543Z,2280.00
2019-01-19T07:46:37.529Z,2316.00
2019-01-19T07:47:37.522Z,2416.00
2019-01-19T07:48:37.508Z,2500.00
2019-01-19T07:49:37.499Z,2572.00
2019-01-19T07:50:37.488Z,2640.00
2019-01-19T07:51:37.478Z,2732.00
2019-01-19T07:52:37.467Z,2808.00
2019-01-19T07:53:37.456Z,2840.00
2019-01-19T07:54:37.446Z,2832.00
2019-01-19T07:55:37.437Z,2820.00
2019-01-19T07:56:37.425Z,2840.00
2019-01-19T07:57:37.418Z,2868.00
2019-01-19T07:58:37.405Z,2884.00
2019-01-19T07:59:37.393Z,2896.00
2019-01-19T08:00:37.383Z,2916.00
2019-01-19T08:01:37.372Z,2952.00
2019-01-19T08:02:37.362Z,3024.00
2019-01-19T08:03:37.351Z,3136.00
2019-01-19T08:04:37.341Z,3324.00
2019-01-19T08:05:37.330Z,3400.00
2019-01-19T08:06:37.320Z,3340.00
2019-01-19T08:07:37.315Z,3304.00
2019-01-19T08:08:37.298Z,3284.00
2019-01-19T08:09:37.288Z,3292.00
2019-01-19T08:10:37.277Z,3332.00
2019-01-19T08:11:37.267Z,3380.00
2019-01-19T08:12:37.258Z,3420.00
2019-01-19T08:13:37.301Z,3476.00
2019-01-19T08:14:37.238Z,3556.00
2019-01-19T08:15:37.227Z,3672.00
2019-01-19T08:16:37.221Z,3844.00
2019-01-19T08:17:37.215Z,4016.00
2019-01-19T08:18:37.200Z,4136.00
2019-01-19T08:19:37.192Z,4204.00
2019-01-19T08:20:37.183Z,4212.00
2019-01-19T08:21:37.175Z,4212.00
2019-01-19T08:22:37.162Z,4208.00
2019-01-19T08:23:37.148Z,4232.00
2019-01-19T08:24:37.141Z,4308.00
2019-01-19T08:25:37.133Z,4428.00
2019-01-19T08:26:37.123Z,4580.00
2019-01-19T08:27:37.108Z,4720.00
2019-01-19T08:28:37.105Z,4796.00
2019-01-19T08:29:37.088Z,4856.00
2019-01-19T08:30:37.077Z,4900.00
2019-01-19T08:31:37.064Z,4984.00
2019-01-19T08:32:37.056Z,5064.00
2019-01-19T08:33:37.045Z,5120.00
2019-01-19T08:34:37.033Z,5236.00
2019-01-19T08:35:37.025Z,5392.00
2019-01-19T08:36:37.013Z,5572.00
2019-01-19T08:37:37.015Z,5852.00
2019-01-19T08:38:36.997Z,6008.00
2019-01-19T08:39:36.980Z,6144.00
2019-01-19T08:40:36.970Z,6372.00
2019-01-19T08:41:36.967Z,6652.00
2019-01-19T08:42:36.956Z,6884.00
2019-01-19T08:43:36.940Z,7104.00
2019-01-19T08:44:36.929Z,7536.00
2019-01-19T08:45:36.915Z,8008.00
2019-01-19T08:46:36.946Z,8152.00
2019-01-19T08:47:36.898Z,8116.00
2019-01-19T08:48:36.883Z,8048.00
2019-01-19T08:49:36.877Z,8140.00
2019-01-19T08:50:36.864Z,8472.00
2019-01-19T08:51:36.856Z,8940.00
2019-01-19T08:52:36.847Z,9276.00
2019-01-19T08:53:36.844Z,9696.00
2019-01-19T08:54:36.839Z,11116.00
2019-01-19T08:55:36.976Z,12300.00
2019-01-19T08:56:38.144Z,13688.00
2019-01-19T08:57:36.830Z,13908.00
2019-01-19T08:58:36.823Z,12252.00
2019-01-19T08:59:36.781Z,11452.00
2019-01-19T09:00:36.765Z,12392.00
2019-01-19T09:01:36.797Z,13848.00
2019-01-19T09:02:36.794Z,12976.00
2019-01-19T09:03:36.728Z,12380.00
2019-01-19T09:04:36.718Z,13312.00
2019-01-19T09:05:36.713Z,13720.00
2019-01-19T09:06:36.730Z,12928.00
2019-01-19T09:07:36.710Z,13624.00
2019-01-19T09:08:36.699Z,15936.00
2019-01-19T09:09:36.672Z,16832.00
2019-01-19T09:10:36.661Z,16128.00
2019-01-19T09:11:36.640Z,17184.00
2019-01-19T09:12:36.630Z,18432.00
2019-01-19T09:13:36.627Z,20096.00
2019-01-19T09:14:36.607Z,19552.00
2019-01-19T09:15:36.597Z,16864.00
2019-01-19T09:16:40.543Z,15680.00
2019-01-19T09:17:37.576Z,18880.00
2019-01-19T09:18:36.583Z,20320.00
2019-01-19T09:19:36.562Z,17344.00
2019-01-19T09:20:36.544Z,13664.00
2019-01-19T09:21:36.535Z,13144.00
2019-01-19T09:22:36.527Z,14108.00
2019-01-19T09:23:36.513Z,12588.00
2019-01-19T09:24:36.502Z,14292.00
2019-01-19T09:25:36.492Z,16416.00
2019-01-19T09:26:36.544Z,13916.00
2019-01-19T09:27:36.471Z,10908.00
2019-01-19T09:28:36.464Z,11004.00
2019-01-19T09:29:36.452Z,11084.00
2019-01-19T09:30:36.441Z,12316.00
2019-01-19T09:31:36.436Z,16192.00
2019-01-19T09:32:36.417Z,12344.00
2019-01-19T09:33:36.404Z,10104.00
2019-01-19T09:34:36.402Z,9756.00
2019-01-19T09:35:36.382Z,9700.00
2019-01-19T09:36:36.431Z,9136.00
2019-01-19T09:37:40.788Z,9436.00
2019-01-19T09:38:36.353Z,9656.00
2019-01-19T09:39:36.347Z,9260.00
2019-01-19T09:40:36.331Z,9644.00
2019-01-19T09:41:36.319Z,9064.00
2019-01-19T09:42:36.308Z,8680.00
2019-01-19T09:43:36.298Z,8748.00
2019-01-19T09:44:36.287Z,9080.00
2019-01-19T09:45:36.304Z,9356.00
2019-01-19T09:46:36.267Z,8796.00
2019-01-19T09:47:36.258Z,8804.00
2019-01-19T09:48:36.249Z,8804.00
2019-01-19T09:49:36.235Z,8644.00
2019-01-19T09:50:36.233Z,8880.00
2019-01-19T09:51:36.211Z,8912.00
2019-01-19T09:52:36.201Z,9012.00
2019-01-19T09:53:36.189Z,9332.00
2019-01-19T09:54:36.186Z,9680.00
2019-01-19T09:55:36.172Z,9888.00
2019-01-19T09:56:36.179Z,10064.00
2019-01-19T09:57:37.117Z,10264.00
2019-01-19T09:58:36.145Z,10220.00
2019-01-19T09:59:36.128Z,10068.00
2019-01-19T10:00:37.831Z,9832.00
2019-01-19T10:01:36.108Z,9660.00
2019-01-19T10:02:36.095Z,9500.00
2019-01-19T10:03:36.085Z,9536.00
2019-01-19T10:04:36.073Z,9564.00
2019-01-19T10:05:36.071Z,9440.00
2019-01-19T10:06:36.055Z,9416.00
2019-01-19T10:07:36.044Z,9636.00
2019-01-19T10:08:36.036Z,9996.00
2019-01-19T10:09:36.025Z,10524.00
2019-01-19T10:10:36.010Z,10932.00
2019-01-19T10:11:36.000Z,11564.00
2019-01-19T10:12:35.987Z,15476.00
2019-01-19T10:13:35.977Z,18656.00
2019-01-19T10:14:35.969Z,18144.00
2019-01-19T10:15:35.969Z,17280.00
2019-01-19T10:16:35.946Z,17312.00
2019-01-19T10:17:35.935Z,19040.00
2019-01-19T10:18:35.927Z,22464.00
2019-01-19T10:19:35.917Z,26016.00
2019-01-19T10:20:35.905Z,27776.00
2019-01-19T10:21:35.906Z,27008.00
2019-01-19T10:22:35.882Z,22688.00
2019-01-19T10:23:35.877Z,19584.00
2019-01-19T10:24:35.862Z,17216.00
2019-01-19T10:25:35.855Z,19744.00
2019-01-19T10:26:35.843Z,24864.00
2019-01-19T10:27:37.533Z,30592.00
2019-01-19T10:28:35.816Z,32736.00
2019-01-19T10:29:35.803Z,32640.00
2019-01-19T10:30:35.798Z,32160.00
2019-01-19T10:31:35.785Z,32640.00
2019-01-19T10:32:35.777Z,31456.00
2019-01-19T10:33:35.768Z,29632.00
2019-01-19T10:34:35.758Z,31936.00
2019-01-19T10:35:35.742Z,35264.00
2019-01-19T10:36:35.737Z,34304.00
2019-01-19T10:37:35.725Z,35200.00
2019-01-19T10:38:35.717Z,34176.00
2019-01-19T10:39:35.702Z,30304.00
2019-01-19T10:40:35.695Z,30496.00
2019-01-19T10:41:40.839Z,33696.00
2019-01-19T10:42:36.671Z,34400.00
2019-01-19T10:43:35.656Z,35328.00
2019-01-19T10:44:35.650Z,36224.00
2019-01-19T10:45:35.641Z,38528.00
2019-01-19T10:46:35.628Z,38784.00
2019-01-19T10:47:35.613Z,38368.00
2019-01-19T10:48:35.612Z,37280.00
2019-01-19T10:49:35.596Z,37536.00
2019-01-19T10:50:35.583Z,37088.00
2019-01-19T10:51:35.570Z,34976.00
2019-01-19T10:52:35.559Z,34112.00
2019-01-19T10:53:35.550Z,33024.00
2019-01-19T10:54:35.541Z,33376.00
2019-01-19T10:55:35.528Z,33312.00
2019-01-19T10:56:35.520Z,33696.00
2019-01-19T10:57:35.506Z,34080.00
2019-01-19T10:58:35.499Z,35552.00
2019-01-19T10:59:35.489Z,35872.00
2019-01-19T11:00:35.480Z,35136.00
2019-01-19T11:01:35.467Z,34272.00
2019-01-19T11:02:35.462Z,33088.00
2019-01-19T11:03:35.445Z,32480.00
2019-01-19T11:04:35.438Z,34080.00
2019-01-19T11:05:35.462Z,33536.00
2019-01-19T11:06:35.410Z,31936.00
2019-01-19T11:07:35.445Z,32288.00
2019-01-19T11:08:35.392Z,30560.00
2019-01-19T11:09:35.381Z,27808.00
2019-01-19T11:10:35.372Z,23584.00
2019-01-19T11:11:35.358Z,22784.00
2019-01-19T11:12:35.352Z,22592.00
2019-01-19T11:13:35.337Z,23456.00
2019-01-19T11:14:35.328Z,25984.00
2019-01-19T11:15:35.322Z,27712.00
2019-01-19T11:16:35.314Z,28480.00
2019-01-19T11:17:35.298Z,27520.00
2019-01-19T11:18:35.284Z,29504.00
2019-01-19T11:19:35.271Z,30400.00
2019-01-19T11:20:35.268Z,30432.00
2019-01-19T11:21:35.251Z,30944.00
2019-01-19T11:22:35.242Z,31488.00
2019-01-19T11:23:39.731Z,31904.00
2019-01-19T11:24:35.224Z,32544.00
2019-01-19T11:25:35.207Z,31328.00
2019-01-19T11:26:35.201Z,32096.00
2019-01-19T11:27:35.190Z,33632.00
2019-01-19T11:28:35.173Z,34496.00
2019-01-19T11:29:35.179Z,33888.00
2019-01-19T11:30:35.159Z,32896.00
2019-01-19T11:31:35.141Z,32480.00
2019-01-19T11:32:35.136Z,32864.00
2019-01-19T11:33:35.138Z,33824.00
2019-01-19T11:34:35.118Z,35680.00
2019-01-19T11:35:35.105Z,36384.00
2019-01-19T11:36:35.090Z,36288.00
2019-01-19T11:37:35.083Z,36000.00
2019-01-19T11:38:35.075Z,35872.00
2019-01-19T11:39:35.062Z,37056.00
2019-01-19T11:40:35.047Z,36000.00
2019-01-19T11:41:35.036Z,36160.00
2019-01-19T11:42:35.035Z,34304.00
2019-01-19T11:43:35.058Z,33984.00
2019-01-19T11:44:35.015Z,31616.00
2019-01-19T11:45:34.994Z,33440.00
2019-01-19T11:46:34.981Z,31424.00
2019-01-19T11:47:34.973Z,29856.00
2019-01-19T11:48:34.969Z,28800.00
2019-01-19T11:49:34.949Z,30336.00
2019-01-19T11:50:34.943Z,30272.00
2019-01-19T11:51:34.927Z,30272.00
2019-01-19T11:52:34.966Z,29696.00
2019-01-19T11:53:34.912Z,27968.00
2019-01-19T11:54:34.901Z,28576.00
2019-01-19T11:55:34.886Z,28768.00
2019-01-19T11:56:34.979Z,27744.00
2019-01-19T11:57:34.864Z,26560.00
2019-01-19T11:58:34.856Z,26720.00
2019-01-19T11:59:34.848Z,27232.00
2019-01-19T12:00:34.832Z,27392.00
2019-01-19T12:01:34.823Z,27328.00
2019-01-19T12:02:37.147Z,26688.00
2019-01-19T12:03:34.804Z,27424.00
2019-01-19T12:04:34.792Z,27872.00
2019-01-19T12:05:34.782Z,27776.00
2019-01-19T12:06:34.774Z,27136.00
2019-01-19T12:07:43.436Z,26272.00
2019-01-19T12:09:16.866Z,26848.00
2019-01-19T12:10:16.776Z,27840.00
2019-01-19T12:11:16.773Z,28736.00
2019-01-19T12:12:16.787Z,28288.00
2019-01-19T12:13:16.754Z,28096.00
2019-01-19T12:14:16.735Z,28800.00
2019-01-19T12:15:16.719Z,27840.00
2019-01-19T12:16:16.706Z,27296.00
2019-01-19T12:17:16.697Z,26944.00
2019-01-19T12:18:16.686Z,26944.00
2019-01-19T12:19:16.674Z,28000.00
2019-01-19T12:20:16.661Z,28704.00
2019-01-19T12:21:16.654Z,29920.00
2019-01-19T12:22:16.640Z,29696.00
2019-01-19T12:23:16.629Z,28224.00
2019-01-19T12:24:16.618Z,26816.00
2019-01-19T12:25:16.607Z,25472.00
2019-01-19T12:26:16.601Z,25792.00
2019-01-19T12:27:16.585Z,26912.00
2019-01-19T12:28:16.574Z,26784.00
2019-01-19T12:29:16.565Z,26368.00
2019-01-19T12:30:16.552Z,26112.00
2019-01-19T12:31:16.542Z,27488.00
2019-01-19T12:32:16.532Z,27904.00
2019-01-19T12:33:16.521Z,27008.00
2019-01-19T12:34:16.509Z,26368.00
2019-01-19T12:35:16.500Z,26976.00
2019-01-19T12:36:16.490Z,27200.00
2019-01-19T12:37:16.478Z,25952.00
2019-01-19T12:38:16.473Z,26784.00
2019-01-19T12:39:16.457Z,25920.00